createdAt,value
2019-02-06T00:02:14.709Z,100066.36
2019-02-06T00:07:18.173Z,100065.64
2019-02-06T00:12:19.760Z,100070.84
2019-02-06T00:17:24.456Z,100072.73
2019-02-06T00:22:26.191Z,100078.99
2019-02-06T00:27:27.777Z,100075.83
2019-02-06T00:32:29.198Z,100078.67
2019-02-06T00:37:30.423Z,100078.67
2019-02-06T00:42:34.287Z,100068.54
2019-02-06T00:47:36.663Z,100070.75
2019-02-06T00:52:38.320Z,100072.68
2019-02-06T00:57:40.529Z,100061.06
2019-02-06T01:02:41.849Z,100073.31
2019-02-06T01:07:44.818Z,100071.82
2019-02-06T01:12:46.642Z,100069.97
2019-02-06T01:17:49.041Z,100069.35
2019-02-06T01:22:50.659Z,100066.09
2019-02-06T01:27:52.021Z,100065.72
2019-02-06T01:32:53.341Z,100061.68
2019-02-06T01:37:54.601Z,100055.82
2019-02-06T01:42:56.057Z,100066.58
2019-02-06T01:47:57.878Z,100072.96
2019-02-06T01:52:59.081Z,100071.11
2019-02-06T01:58:00.278Z,100068.38
2019-02-06T02:03:01.579Z,100073.15
2019-02-06T02:08:03.286Z,100076.62
2019-02-06T02:13:04.506Z,100076.03
2019-02-06T02:18:05.940Z,100068.30
2019-02-06T02:23:07.301Z,100063.59
2019-02-06T02:28:10.248Z,100056.95
2019-02-06T02:33:11.714Z,100065.98
2019-02-06T02:38:13.005Z,100064.10
2019-02-06T02:43:14.385Z,100064.99
2019-02-06T02:48:15.823Z,100072.36
2019-02-06T02:53:17.074Z,100064.16
2019-02-06T02:58:19.586Z,100060.05
2019-02-06T03:03:37.961Z,100055.88
2019-02-06T03:08:39.208Z,100055.89
2019-02-06T03:13:40.486Z,100058.30
2019-02-06T03:18:41.673Z,100052.22
2019-02-06T03:23:43.584Z,100048.10
2019-02-06T03:28:45.058Z,100047.52
2019-02-06T03:33:46.376Z,100041.05
2019-02-06T03:38:47.835Z,100042.27
2019-02-06T03:43:49.020Z,100037.54
2019-02-06T03:48:51.305Z,100029.32
2019-02-06T03:53:53.608Z,100034.38
2019-02-06T03:58:54.835Z,100035.78
2019-02-06T04:03:56.386Z,100042.22
2019-02-06T04:08:57.683Z,100036.81
2019-02-06T04:13:59.114Z,100029.25
2019-02-06T04:19:00.353Z,100036.81
2019-02-06T04:24:01.760Z,100054.03
2019-02-06T04:29:03.199Z,100042.33
2019-02-06T04:34:04.431Z,100042.25
2019-02-06T04:39:06.320Z,100045.23
2019-02-06T04:44:08.047Z,100038.19
2019-02-06T04:49:09.528Z,100032.22
2019-02-06T04:54:10.762Z,100031.14
2019-02-06T04:59:12.441Z,100030.44
2019-02-06T05:04:13.608Z,100023.03
2019-02-06T05:09:15.142Z,100027.61
2019-02-06T05:14:16.424Z,100039.14
2019-02-06T05:19:17.769Z,100030.86
2019-02-06T05:24:18.961Z,100029.36
2019-02-06T05:29:20.177Z,100026.47
2019-02-06T05:34:21.655Z,100030.22
2019-02-06T05:39:22.958Z,100037.00
2019-02-06T05:44:24.170Z,100026.15
2019-02-06T05:49:27.098Z,100030.27
2019-02-06T05:54:28.652Z,100030.66
2019-02-06T05:59:30.079Z,100043.06
2019-02-06T06:04:31.455Z,100041.97
2019-02-06T06:09:33.358Z,100042.85
2019-02-06T06:14:34.994Z,100042.94
2019-02-06T06:19:36.196Z,100049.28
2019-02-06T06:24:37.988Z,100046.20
2019-02-06T06:29:39.263Z,100044.85
2019-02-06T06:34:40.464Z,100042.23
2019-02-06T06:39:41.624Z,100033.28
2019-02-06T06:44:42.914Z,100038.84
2019-02-06T06:49:44.625Z,100043.39
2019-02-06T06:54:45.830Z,100044.65
2019-02-06T06:59:47.136Z,100047.81
2019-02-06T07:04:48.888Z,100043.38
2019-02-06T07:09:50.090Z,100041.41
2019-02-06T07:14:51.277Z,100050.09
2019-02-06T07:19:52.427Z,100059.47
2019-02-06T07:24:53.855Z,100063.50
2019-02-06T07:29:55.085Z,100051.84
2019-02-06T07:34:56.150Z,100058.09
2019-02-06T07:39:57.442Z,100061.03
2019-02-06T07:44:58.881Z,100055.66
2019-02-06T07:50:00.454Z,100049.28
2019-02-06T07:55:01.948Z,100056.16
2019-02-06T08:00:06.840Z,100055.82
2019-02-06T08:05:18.951Z,100059.69
2019-02-06T08:10:28.130Z,100062.72
2019-02-06T08:15:29.430Z,100062.97
2019-02-06T08:20:30.675Z,100068.96
2019-02-06T08:25:31.812Z,100065.02
2019-02-06T08:30:37.999Z,100066.99
2019-02-06T08:35:39.504Z,100056.14
2019-02-06T08:40:40.829Z,100067.37
2019-02-06T08:45:42.119Z,100061.18
2019-02-06T08:50:43.570Z,100056.49
2019-02-06T08:55:44.933Z,100052.52
2019-02-06T09:00:46.083Z,100048.99
2019-02-06T09:05:47.652Z,100050.72
2019-02-06T09:10:49.001Z,100038.88
2019-02-06T09:15:50.275Z,100049.97
2019-02-06T09:20:52.848Z,100038.16
2019-02-06T09:25:58.928Z,100031.38
2019-02-06T09:31:01.445Z,100035.21
2019-02-06T09:36:03.645Z,100026.66
2019-02-06T09:41:05.087Z,100028.36
2019-02-06T09:46:06.405Z,100028.54
2019-02-06T09:51:07.827Z,100024.78
2019-02-06T09:56:11.260Z,100016.33
2019-02-06T10:01:13.631Z,100025.87
2019-02-06T10:06:15.328Z,100016.02
2019-02-06T10:11:16.709Z,99998.41
2019-02-06T10:16:20.129Z,100000.73
2019-02-06T10:21:21.198Z,99994.71
2019-02-06T10:26:22.607Z,99995.73
2019-02-06T10:31:23.913Z,99993.33
2019-02-06T10:36:25.352Z,99988.02
2019-02-06T10:41:26.496Z,99981.52
2019-02-06T10:46:29.464Z,99972.36
2019-02-06T10:51:30.790Z,99959.11
2019-02-06T10:56:32.072Z,99953.23
2019-02-06T11:01:33.252Z,99942.14
2019-02-06T11:06:35.195Z,99943.77
2019-02-06T11:11:36.333Z,99931.45
2019-02-06T11:16:40.602Z,99919.52
2019-02-06T11:21:49.283Z,99913.16
2019-02-06T11:26:57.563Z,99909.76
2019-02-06T11:32:01.321Z,99909.22
2019-02-06T11:37:02.846Z,99893.34
2019-02-06T11:42:06.797Z,99880.32
2019-02-06T11:47:08.399Z,99868.75
2019-02-06T11:52:13.628Z,99862.27
2019-02-06T11:57:17.672Z,99856.78
2019-02-06T12:02:20.983Z,99851.94
2019-02-06T12:07:22.384Z,99834.37
2019-02-06T12:12:24.118Z,99833.47
2019-02-06T12:17:25.644Z,99833.14
2019-02-06T12:22:26.780Z,99817.16
2019-02-06T12:27:28.223Z,99796.67
2019-02-06T12:32:30.126Z,99790.41
2019-02-06T12:37:32.006Z,99778.11
2019-02-06T12:42:35.523Z,99778.41
2019-02-06T12:47:37.141Z,99774.83
2019-02-06T12:52:38.847Z,99750.17
2019-02-06T12:57:40.246Z,99748.71
2019-02-06T13:02:41.806Z,99741.55
2019-02-06T13:07:43.930Z,99740.67
2019-02-06T13:12:45.397Z,99728.80
2019-02-06T13:17:47.507Z,99721.30
2019-02-06T13:22:49.433Z,99718.72
2019-02-06T13:27:51.904Z,99708.75
2019-02-06T13:32:53.690Z,99709.62
2019-02-06T13:37:57.690Z,99703.48
2019-02-06T13:42:59.055Z,99687.93
2019-02-06T13:48:00.714Z,99680.73
2019-02-06T13:53:02.230Z,99682.23
2019-02-06T13:58:05.431Z,99663.86
2019-02-06T14:03:06.842Z,99666.20
2019-02-06T14:08:11.607Z,99650.86
2019-02-06T14:13:12.991Z,99642.25
2019-02-06T14:18:14.689Z,99637.23
2019-02-06T14:23:29.022Z,99630.00
2019-02-06T14:28:57.299Z,99630.00
2019-02-06T14:34:12.068Z,99610.61
2019-02-06T14:39:33.658Z,99603.22
2019-02-06T14:44:57.152Z,99599.87
2019-02-06T14:50:11.640Z,99589.09
2019-02-06T14:55:30.123Z,99584.66
2019-02-06T15:00:59.905Z,99575.14
2019-02-06T15:06:12.900Z,99562.02
2019-02-06T15:11:24.062Z,99560.02
2019-02-06T15:16:46.401Z,99553.12
2019-02-06T15:21:51.607Z,99551.20
2019-02-06T15:27:13.648Z,99545.09
2019-02-06T15:32:33.987Z,99552.19
2019-02-06T15:37:57.012Z,99545.27
2019-02-06T15:43:02.072Z,99537.52
2019-02-06T15:48:24.247Z,99531.97
2019-02-06T15:53:36.373Z,99531.30
2019-02-06T15:58:58.417Z,99523.67
2019-02-06T16:04:34.876Z,99524.28
2019-02-06T16:09:55.531Z,99526.08
2019-02-06T16:15:03.673Z,99513.73
2019-02-06T16:20:28.268Z,99512.20
2019-02-06T16:25:37.762Z,99508.52
2019-02-06T16:30:57.684Z,99515.48
2019-02-06T16:36:11.488Z,99513.63
2019-02-06T16:41:37.894Z,99511.55
2019-02-06T16:47:05.903Z,99510.52
2019-02-06T16:52:17.910Z,99510.95
2019-02-06T16:57:35.344Z,99505.44
2019-02-06T17:02:43.385Z,99515.41
2019-02-06T17:07:54.808Z,99512.72
2019-02-06T17:13:20.877Z,99509.31
2019-02-06T17:18:42.891Z,99504.52
2019-02-06T17:23:50.943Z,99504.34
2019-02-06T17:28:59.358Z,99497.64
2019-02-06T17:34:22.928Z,99500.49
2019-02-06T17:39:58.790Z,99503.36
2019-02-06T17:45:13.189Z,99499.05
2019-02-06T17:50:27.130Z,99501.52
2019-02-06T17:55:29.799Z,99490.87
2019-02-06T18:00:37.995Z,99491.27
2019-02-06T18:05:40.335Z,99495.56
2019-02-06T18:10:41.993Z,99481.06
2019-02-06T18:15:43.630Z,99476.59
2019-02-06T18:20:44.930Z,99469.61
2019-02-06T18:25:46.633Z,99467.22
2019-02-06T18:30:48.129Z,99465.69
2019-02-06T18:35:49.564Z,99460.81
2019-02-06T18:40:50.839Z,99453.72
2019-02-06T18:45:52.480Z,99451.03
2019-02-06T18:50:54.433Z,99451.84
2019-02-06T18:55:56.032Z,99447.23
2019-02-06T19:00:57.486Z,99453.02
2019-02-06T19:05:59.927Z,99454.59
2019-02-06T19:11:01.841Z,99458.59
2019-02-06T19:16:06.648Z,99453.78
2019-02-06T19:21:08.611Z,99457.92
2019-02-06T19:26:10.707Z,99455.48
2019-02-06T19:31:12.503Z,99448.86
2019-02-06T19:36:14.071Z,99452.41
2019-02-06T19:41:15.912Z,99442.34
2019-02-06T19:46:17.714Z,99440.40
2019-02-06T19:51:19.434Z,99428.87
2019-02-06T19:56:21.021Z,99429.59
2019-02-06T20:01:22.860Z,99417.17
2019-02-06T20:06:26.217Z,99412.97
2019-02-06T20:11:28.486Z,99409.32
2019-02-06T20:16:29.985Z,99400.17
2019-02-06T20:21:31.583Z,99402.90
2019-02-06T20:26:33.303Z,99404.23
2019-02-06T20:31:34.832Z,99399.08
2019-02-06T20:36:36.294Z,99406.11
2019-02-06T20:41:38.307Z,99389.39
2019-02-06T20:46:39.516Z,99388.55
2019-02-06T20:51:41.124Z,99383.47
2019-02-06T20:56:42.869Z,99376.70
2019-02-06T21:01:44.861Z,99372.91
2019-02-06T21:06:46.247Z,99375.97
2019-02-06T21:11:47.447Z,99373.41
2019-02-06T21:16:48.829Z,99375.72
2019-02-06T21:21:50.346Z,99371.42
2019-02-06T21:26:51.794Z,99364.76
2019-02-06T21:31:53.397Z,99358.41
2019-02-06T21:36:56.108Z,99365.14
2019-02-06T21:41:57.672Z,99365.35
2019-02-06T21:46:59.340Z,99368.12
2019-02-06T21:52:00.840Z,99342.78
2019-02-06T21:57:02.183Z,99348.91
2019-02-06T22:02:03.504Z,99339.97
2019-02-06T22:07:04.839Z,99332.28
2019-02-06T22:12:06.355Z,99324.00
2019-02-06T22:17:07.647Z,99332.50
2019-02-06T22:22:09.059Z,99335.17
2019-02-06T22:27:10.602Z,99333.75
2019-02-06T22:32:12.261Z,99334.45
2019-02-06T22:37:13.474Z,99329.20
2019-02-06T22:42:14.888Z,99328.22
2019-02-06T22:47:16.350Z,99328.48
2019-02-06T22:52:17.657Z,99335.22
2019-02-06T22:57:19.193Z,99332.77
2019-02-06T23:02:20.383Z,99324.92
2019-02-06T23:07:21.874Z,99330.67
2019-02-06T23:12:23.765Z,99326.39
2019-02-06T23:17:25.227Z,99311.34
2019-02-06T23:22:26.878Z,99309.76
2019-02-06T23:27:28.360Z,99302.69
2019-02-06T23:32:29.763Z,99286.61
2019-02-06T23:37:31.563Z,99269.65
2019-02-06T23:42:32.962Z,99253.03
2019-02-06T23:47:34.474Z,99244.17
2019-02-06T23:52:35.971Z,99241.94
2019-02-06T23:57:37.104Z,99231.95
